SashaShmel (mil_avia) wrote,
SashaShmel
mil_avia

Category:

Уральцы победили туман в Храброво

С утра в Храброво туман. И в Калининграде он тоже густой. Все рейсы задерживаются. "Белавиа" и вовсе отменила утренний рейс из Минска .

METAR : UMKK 181000Z 22003MPS 0400 R24/0400N FZFG VV002 M02/M02 Q1026 R24/29//60 NOSIG RMK QBB060 OBST OBSC QFE768/1025

В таких погодных условиях у уральцев не было выбора. Либо посадка либо уход на запасной в Пулково .

Покружили немного в зоне ожидания и приземлились! Остаток топлива на 2 часа 30 минут  . Заход на полосу 06, векторение.

Airbus A320 VQ-BGJ URAL AIRLINES | Flight U6403/SVR403 SVX-KGD На борту 54 пассажира


Короткое аудио https://yadi.sk/d/yFiUr8Lc3QiZ9R
Tags: калининград, храброво
Subscribe

Posts from This Journal “храброво” Tag

  • Post a new comment

    Error

    Anonymous comments are disabled in this journal

    default userpic

    Your reply will be screened

    Your IP address will be recorded 

  • 1 comment